createdAt,value
2017-06-01T00:00:15.483Z,66.40
2017-06-01T00:02:44.105Z,66.40
2017-06-01T00:05:12.636Z,66.00
2017-06-01T00:07:41.155Z,66.40
2017-06-01T00:10:09.665Z,66.90
2017-06-01T00:12:38.198Z,67.70
2017-06-01T00:15:06.773Z,68.30
2017-06-01T00:17:35.800Z,68.70
2017-06-01T00:20:04.350Z,68.50
2017-06-01T00:22:32.817Z,68.70
2017-06-01T00:25:01.380Z,68.80
2017-06-01T00:27:29.795Z,69.10
2017-06-01T00:29:58.281Z,67.70
2017-06-01T00:32:26.020Z,67.70
2017-06-01T00:34:54.502Z,66.20
2017-06-01T00:37:22.952Z,64.80
2017-06-01T00:39:51.414Z,64.20
2017-06-01T00:42:19.123Z,64.10
2017-06-01T00:47:25.923Z,65.50
2017-06-01T00:49:54.643Z,65.20
2017-06-01T00:52:23.176Z,66.50
2017-06-01T00:54:51.739Z,66.50
2017-06-01T00:57:20.184Z,67.70
2017-06-01T00:59:48.683Z,68.30
2017-06-01T01:02:17.143Z,68.20
2017-06-01T01:04:45.591Z,68.80
2017-06-01T01:07:14.049Z,68.90
2017-06-01T01:09:42.519Z,69.40
2017-06-01T01:12:11.039Z,68.80
2017-06-01T01:14:39.530Z,67.90
2017-06-01T01:17:08.126Z,68.50
2017-06-01T01:19:36.594Z,69.30
2017-06-01T01:22:05.076Z,69.50
2017-06-01T01:24:33.628Z,70.00
2017-06-01T01:27:02.084Z,69.70
2017-06-01T01:29:30.538Z,69.20
2017-06-01T01:31:59.023Z,69.70
2017-06-01T01:34:27.525Z,70.40
2017-06-01T01:36:56.002Z,70.50
2017-06-01T01:39:24.500Z,70.60
2017-06-01T01:41:52.948Z,70.60
2017-06-01T01:44:21.372Z,70.80
2017-06-01T01:46:49.840Z,71.20
2017-06-01T01:49:18.248Z,70.40
2017-06-01T01:51:46.678Z,70.90
2017-06-01T01:54:14.423Z,70.90
2017-06-01T01:56:42.830Z,71.00
2017-06-01T01:59:18.819Z,71.00
2017-06-01T02:02:07.097Z,71.30
2017-06-01T02:04:35.796Z,71.40
2017-06-01T02:07:04.265Z,71.80
2017-06-01T02:09:31.918Z,71.70
2017-06-01T02:11:59.626Z,72.00
2017-06-01T02:14:27.347Z,72.70
2017-06-01T02:16:55.827Z,72.80
2017-06-01T02:19:24.333Z,72.40
2017-06-01T02:21:52.848Z,72.90
2017-06-01T02:24:21.447Z,73.20
2017-06-01T02:26:49.965Z,73.50
2017-06-01T02:29:18.441Z,73.10
2017-06-01T02:31:46.921Z,73.10
2017-06-01T02:34:15.412Z,73.60
2017-06-01T02:36:43.870Z,74.10
2017-06-01T02:39:12.328Z,74.50
2017-06-01T02:41:40.005Z,74.50
2017-06-01T02:44:08.458Z,74.30
2017-06-01T02:46:36.949Z,74.00
2017-06-01T02:49:05.481Z,74.00
2017-06-01T02:51:34.017Z,74.10
2017-06-01T02:54:01.741Z,74.10
2017-06-01T02:56:30.212Z,74.70
2017-06-01T02:58:58.714Z,75.10
2017-06-01T03:01:27.300Z,75.10
2017-06-01T03:03:55.863Z,75.40
2017-06-01T03:06:24.397Z,75.20
2017-06-01T03:08:52.150Z,75.10
2017-06-01T03:11:21.817Z,75.20
2017-06-01T03:13:50.619Z,75.30
2017-06-01T03:16:19.172Z,75.50
2017-06-01T03:18:47.694Z,75.10
2017-06-01T03:21:16.386Z,75.30
2017-06-01T03:23:44.878Z,75.20
2017-06-01T03:26:13.377Z,75.10
2017-06-01T03:28:41.853Z,75.00
2017-06-01T03:31:10.369Z,75.00
2017-06-01T03:33:38.886Z,76.00
2017-06-01T03:36:07.363Z,75.20
2017-06-01T03:38:35.831Z,74.90
2017-06-01T03:41:04.366Z,75.00
2017-06-01T03:43:32.134Z,74.90
2017-06-01T03:46:00.560Z,74.90
2017-06-01T03:48:29.075Z,75.00
2017-06-01T03:50:57.514Z,74.80
2017-06-01T03:53:25.889Z,74.70
2017-06-01T03:55:54.308Z,74.90
2017-06-01T03:58:22.719Z,74.40
2017-06-01T04:00:51.091Z,74.40
2017-06-01T04:03:19.459Z,74.30
2017-06-01T04:05:47.835Z,73.90
2017-06-01T04:08:16.198Z,72.80
2017-06-01T04:10:44.541Z,68.00
2017-06-01T04:13:12.904Z,62.10
2017-06-01T04:15:41.310Z,58.20
2017-06-01T04:18:09.666Z,55.30
2017-06-01T04:20:38.075Z,52.40
2017-06-01T04:23:06.479Z,50.20
2017-06-01T04:25:34.855Z,48.10
2017-06-01T04:28:03.260Z,46.30
2017-06-01T04:30:31.070Z,46.10
2017-06-01T04:32:59.466Z,42.10
2017-06-01T04:35:27.948Z,40.70
2017-06-01T04:37:56.342Z,38.80
2017-06-01T04:40:24.757Z,40.50
2017-06-01T04:42:53.165Z,41.20
2017-06-01T04:45:21.618Z,41.70
2017-06-01T04:47:50.036Z,42.10
2017-06-01T04:50:18.401Z,42.40
2017-06-01T04:52:46.821Z,41.10
2017-06-01T04:55:15.212Z,37.50
2017-06-01T04:57:43.560Z,36.10
2017-06-01T05:00:11.943Z,37.40
2017-06-01T05:02:40.308Z,35.90
2017-06-01T05:05:08.674Z,35.60
2017-06-01T05:07:37.021Z,34.20
2017-06-01T05:10:05.400Z,33.10
2017-06-01T05:12:33.750Z,33.00
2017-06-01T05:15:02.121Z,33.20
2017-06-01T05:17:30.471Z,32.60
2017-06-01T05:19:58.818Z,32.80
2017-06-01T05:22:27.194Z,32.70
2017-06-01T05:24:56.584Z,31.70
2017-06-01T05:27:24.946Z,33.50
2017-06-01T05:29:53.329Z,34.30
2017-06-01T05:32:21.689Z,37.30
2017-06-01T05:34:50.084Z,35.30
2017-06-01T05:37:18.438Z,35.00
2017-06-01T05:39:46.068Z,34.90
2017-06-01T05:42:14.423Z,33.40
2017-06-01T05:44:42.795Z,33.80
2017-06-01T05:47:11.159Z,33.50
2017-06-01T05:49:39.554Z,32.70
2017-06-01T05:52:07.930Z,30.90
2017-06-01T05:54:36.467Z,30.00
2017-06-01T05:57:04.828Z,30.70
2017-06-01T05:59:33.203Z,29.50
2017-06-01T06:02:01.543Z,31.00
2017-06-01T06:04:30.003Z,28.70
2017-06-01T06:06:59.055Z,29.50
2017-06-01T06:09:27.485Z,30.20
2017-06-01T06:11:56.725Z,30.00
2017-06-01T06:27:25.187Z,28.20
2017-06-01T06:29:53.680Z,28.10
2017-06-01T06:32:22.584Z,28.30
2017-06-01T06:34:51.005Z,29.50
2017-06-01T06:37:19.460Z,28.30
2017-06-01T06:39:47.883Z,28.70
2017-06-01T06:42:16.283Z,27.90
2017-06-01T06:44:44.651Z,26.20
2017-06-01T06:47:13.039Z,28.10
2017-06-01T06:49:41.496Z,29.00
2017-06-01T06:52:09.894Z,31.00
2017-06-01T06:54:38.301Z,29.80
2017-06-01T06:57:06.703Z,31.20
2017-06-01T06:59:35.134Z,31.20
2017-06-01T07:02:03.526Z,29.30
2017-06-01T07:04:32.207Z,28.90
2017-06-01T07:07:00.625Z,28.20
2017-06-01T07:09:29.043Z,27.00
2017-06-01T07:11:57.481Z,26.90
2017-06-01T07:14:25.924Z,27.40
2017-06-01T07:16:54.356Z,26.60
2017-06-01T07:19:22.915Z,26.80
2017-06-01T07:21:51.349Z,26.00
2017-06-01T07:24:19.736Z,25.90
2017-06-01T07:26:48.223Z,25.90
2017-06-01T07:29:16.867Z,25.30
2017-06-01T07:31:45.264Z,25.80
2017-06-01T07:34:13.707Z,24.60
2017-06-01T07:36:42.095Z,24.90
2017-06-01T07:39:10.472Z,24.40
2017-06-01T07:41:38.875Z,24.70
2017-06-01T07:44:07.299Z,24.30
2017-06-01T07:46:35.711Z,24.50
2017-06-01T07:49:04.137Z,25.60
2017-06-01T07:51:32.571Z,22.80
2017-06-01T07:54:01.231Z,25.20
2017-06-01T07:56:29.608Z,24.40
2017-06-01T07:58:58.055Z,25.10
2017-06-01T08:01:25.697Z,25.10
2017-06-01T08:03:54.084Z,24.30
2017-06-01T08:06:22.540Z,23.30
2017-06-01T08:08:50.935Z,24.20
2017-06-01T08:11:19.520Z,25.20
2017-06-01T08:13:47.887Z,25.10
2017-06-01T08:16:16.246Z,26.70
2017-06-01T08:18:44.651Z,25.50
2017-06-01T08:21:13.073Z,25.80
2017-06-01T08:23:41.447Z,24.90
2017-06-01T08:26:09.813Z,24.90
2017-06-01T08:28:38.186Z,23.50
2017-06-01T08:31:07.399Z,24.70
2017-06-01T08:33:35.771Z,24.50
2017-06-01T08:36:04.177Z,24.50
2017-06-01T08:38:32.551Z,23.90
2017-06-01T08:41:00.907Z,24.30
2017-06-01T08:43:28.499Z,24.30
2017-06-01T08:45:56.862Z,24.20
2017-06-01T08:48:25.243Z,25.40
2017-06-01T08:50:53.688Z,26.80
2017-06-01T08:53:22.122Z,24.60
2017-06-01T08:55:59.150Z,25.30
2017-06-01T08:58:27.584Z,25.00
2017-06-01T09:00:56.059Z,24.60
2017-06-01T09:03:23.772Z,24.60
2017-06-01T09:05:53.138Z,25.20
2017-06-01T09:08:21.582Z,25.00
2017-06-01T09:10:50.071Z,25.50
2017-06-01T09:13:18.564Z,24.50
2017-06-01T09:15:47.032Z,24.40
2017-06-01T09:18:15.464Z,26.10
2017-06-01T09:20:43.873Z,24.80
2017-06-01T09:23:18.346Z,24.70
2017-06-01T09:38:46.847Z,26.00
2017-06-01T09:41:16.334Z,25.10
2017-06-01T09:43:47.626Z,25.10
2017-06-01T09:46:16.101Z,25.90
2017-06-01T09:48:44.556Z,23.90
2017-06-01T09:51:12.990Z,25.10
2017-06-01T09:53:41.416Z,24.40
2017-06-01T09:56:09.885Z,24.80
2017-06-01T09:58:38.337Z,23.80
2017-06-01T10:01:06.869Z,25.40
2017-06-01T10:03:35.343Z,24.40
2017-06-01T10:06:03.842Z,23.60
2017-06-01T10:08:32.280Z,22.90
2017-06-01T10:11:00.713Z,23.80
2017-06-01T10:13:29.173Z,23.20
2017-06-01T10:15:57.602Z,24.40
2017-06-01T10:18:28.688Z,23.90
2017-06-01T10:20:57.151Z,25.40
2017-06-01T10:23:25.607Z,25.70
2017-06-01T10:25:54.068Z,26.10
2017-06-01T10:28:22.520Z,26.60
2017-06-01T10:30:50.920Z,26.60
2017-06-01T10:33:19.395Z,27.20
2017-06-01T10:35:47.964Z,28.60
2017-06-01T10:38:16.439Z,28.70
2017-06-01T10:40:44.914Z,28.70
2017-06-01T10:43:13.489Z,27.00
2017-06-01T10:45:41.953Z,27.10
2017-06-01T10:48:10.405Z,28.50
2017-06-01T10:50:38.841Z,29.70
2017-06-01T10:53:07.349Z,28.00
2017-06-01T10:55:36.831Z,27.90
2017-06-01T10:58:05.272Z,26.30
2017-06-01T11:00:33.733Z,25.80
2017-06-01T11:03:02.203Z,27.10
2017-06-01T11:05:30.597Z,27.80
2017-06-01T11:07:59.111Z,28.60
2017-06-01T11:10:27.584Z,28.90
2017-06-01T11:12:55.987Z,29.90
2017-06-01T11:15:24.399Z,30.60
2017-06-01T11:17:52.864Z,30.90
2017-06-01T11:20:21.285Z,27.10
2017-06-01T11:22:49.683Z,30.40
2017-06-01T11:25:18.115Z,29.60
2017-06-01T11:27:46.618Z,29.10
2017-06-01T11:30:15.004Z,30.00
2017-06-01T11:32:43.432Z,29.20
2017-06-01T11:35:11.849Z,31.00
2017-06-01T11:37:40.237Z,30.40
2017-06-01T11:40:08.662Z,31.40
2017-06-01T11:42:37.088Z,29.40
2017-06-01T11:45:05.660Z,30.80
2017-06-01T11:47:34.102Z,32.30
2017-06-01T11:50:02.554Z,32.00
2017-06-01T11:52:30.933Z,32.10
2017-06-01T11:54:59.351Z,32.60
2017-06-01T11:57:27.790Z,32.20
2017-06-01T11:59:56.183Z,31.10
2017-06-01T12:02:24.799Z,34.80
2017-06-01T12:04:53.183Z,34.10
2017-06-01T12:07:21.599Z,35.20
2017-06-01T12:09:49.988Z,32.90
2017-06-01T12:12:18.347Z,32.90
2017-06-01T12:14:46.762Z,33.30
2017-06-01T12:17:15.170Z,34.10
2017-06-01T12:19:43.574Z,36.90
2017-06-01T12:22:11.962Z,32.80
2017-06-01T12:24:40.411Z,33.30
2017-06-01T12:27:08.812Z,34.30
2017-06-01T12:29:37.435Z,35.60
2017-06-01T12:32:05.775Z,34.70
2017-06-01T12:34:34.155Z,35.80
2017-06-01T12:37:02.504Z,35.40
2017-06-01T12:39:30.842Z,37.30
2017-06-01T12:41:59.363Z,36.50
2017-06-01T12:44:27.737Z,35.00
2017-06-01T12:46:56.960Z,35.80
2017-06-01T12:49:25.387Z,35.40
2017-06-01T12:51:53.817Z,36.00
2017-06-01T12:54:22.210Z,34.40
2017-06-01T12:56:50.656Z,33.70
2017-06-01T12:59:19.057Z,35.60
2017-06-01T13:01:47.477Z,36.80
2017-06-01T13:04:15.908Z,37.00
2017-06-01T13:06:44.291Z,35.00
2017-06-01T13:09:12.710Z,37.80
2017-06-01T13:11:41.123Z,35.80
2017-06-01T13:14:09.584Z,35.00
2017-06-01T13:16:38.000Z,37.20
2017-06-01T13:19:05.586Z,37.20
2017-06-01T13:21:33.947Z,33.90
2017-06-01T13:24:02.520Z,37.10
2017-06-01T13:26:30.898Z,34.20
2017-06-01T13:28:59.291Z,34.90
2017-06-01T13:31:27.648Z,34.40
2017-06-01T13:33:57.775Z,34.40
2017-06-01T13:36:28.238Z,35.30
2017-06-01T13:38:56.762Z,35.20
2017-06-01T13:41:33.619Z,35.70
2017-06-01T13:44:08.118Z,34.20
2017-06-01T13:46:36.573Z,34.80
2017-06-01T13:49:04.967Z,35.80
2017-06-01T13:51:33.338Z,37.90
2017-06-01T13:54:01.711Z,33.80
2017-06-01T13:56:30.180Z,36.90
2017-06-01T13:58:58.620Z,34.40
2017-06-01T14:01:26.986Z,34.60
2017-06-01T14:03:55.432Z,35.50
2017-06-01T14:06:23.780Z,35.00
2017-06-01T14:08:52.154Z,34.90
2017-06-01T14:11:20.533Z,36.30
2017-06-01T14:13:48.879Z,35.00
2017-06-01T14:16:17.223Z,34.50
2017-06-01T14:18:45.592Z,34.80
2017-06-01T14:21:13.967Z,35.40
2017-06-01T14:23:41.597Z,35.30
2017-06-01T14:26:10.035Z,35.70
2017-06-01T14:28:38.410Z,37.50
2017-06-01T14:31:06.791Z,35.20
2017-06-01T14:33:35.147Z,35.40
2017-06-01T14:36:03.624Z,37.50
2017-06-01T14:38:31.324Z,37.50
2017-06-01T14:40:59.698Z,36.20
2017-06-01T14:43:28.084Z,35.10
2017-06-01T14:45:56.459Z,36.30
2017-06-01T14:48:24.826Z,35.60
2017-06-01T14:50:53.278Z,35.60
2017-06-01T14:53:21.650Z,36.70
2017-06-01T14:55:50.088Z,37.80
2017-06-01T14:58:18.405Z,37.70
2017-06-01T15:00:46.779Z,37.70
2017-06-01T15:03:15.191Z,37.20
2017-06-01T15:05:43.564Z,36.80
2017-06-01T15:08:11.926Z,36.30
2017-06-01T15:10:39.587Z,36.20
2017-06-01T15:13:07.975Z,36.60
2017-06-01T15:15:36.333Z,37.50
2017-06-01T15:18:04.727Z,36.60
2017-06-01T15:20:33.074Z,37.60
2017-06-01T15:23:01.415Z,36.80
2017-06-01T15:25:29.791Z,36.60
2017-06-01T15:27:58.229Z,36.90
2017-06-01T15:30:26.619Z,37.80
2017-06-01T15:32:55.010Z,37.90
2017-06-01T15:35:23.365Z,36.80
2017-06-01T15:37:51.740Z,36.90
2017-06-01T15:40:20.124Z,39.20
2017-06-01T15:42:48.487Z,36.90
2017-06-01T15:45:16.108Z,36.90
2017-06-01T15:47:44.469Z,37.20
2017-06-01T15:50:12.833Z,38.40
2017-06-01T15:52:41.223Z,38.00
2017-06-01T15:55:09.595Z,37.90
2017-06-01T15:57:37.963Z,38.40
2017-06-01T16:00:06.346Z,38.90
2017-06-01T16:02:34.699Z,38.10
2017-06-01T16:05:03.087Z,36.70
2017-06-01T16:07:31.466Z,37.10
2017-06-01T16:09:59.863Z,36.20
2017-06-01T16:12:28.231Z,38.00
2017-06-01T16:14:56.652Z,39.40
2017-06-01T16:17:25.092Z,39.00
2017-06-01T16:19:53.545Z,38.30
2017-06-01T16:22:21.995Z,39.60
2017-06-01T16:24:50.423Z,38.20
2017-06-01T16:27:18.794Z,37.80
2017-06-01T16:29:47.219Z,37.80
2017-06-01T16:32:15.599Z,38.50
2017-06-01T16:34:44.022Z,37.50
2017-06-01T16:37:12.423Z,38.20
2017-06-01T16:39:40.795Z,38.70
2017-06-01T16:42:09.228Z,37.60
2017-06-01T16:44:37.727Z,37.10
2017-06-01T16:47:06.146Z,36.90
2017-06-01T16:49:34.529Z,37.80
2017-06-01T16:52:02.942Z,37.90
2017-06-01T16:54:31.384Z,38.70
2017-06-01T16:56:59.784Z,38.50
2017-06-01T16:59:28.179Z,40.50
2017-06-01T17:01:56.553Z,39.80
2017-06-01T17:04:24.962Z,39.00
2017-06-01T17:06:53.380Z,39.20
2017-06-01T17:09:21.873Z,39.30
2017-06-01T17:11:50.373Z,40.20
2017-06-01T17:14:18.769Z,38.20
2017-06-01T17:16:47.221Z,39.10
2017-06-01T17:19:15.608Z,38.80
2017-06-01T17:21:44.034Z,39.90
2017-06-01T17:24:12.488Z,40.20
2017-06-01T17:26:40.878Z,40.30
2017-06-01T17:29:09.344Z,39.70
2017-06-01T17:31:37.782Z,39.10
2017-06-01T17:34:06.303Z,40.70
2017-06-01T17:36:34.760Z,41.20
2017-06-01T17:39:03.188Z,40.40
2017-06-01T17:41:31.631Z,39.80
2017-06-01T17:44:00.123Z,40.90
2017-06-01T17:46:28.588Z,41.00
2017-06-01T17:48:57.091Z,41.90
2017-06-01T17:51:25.484Z,41.40
2017-06-01T17:53:53.891Z,40.80
2017-06-01T17:56:22.311Z,40.60
2017-06-01T17:58:50.809Z,42.00
2017-06-01T18:01:18.618Z,42.00
2017-06-01T18:03:47.045Z,40.10
2017-06-01T18:06:15.456Z,41.30
2017-06-01T18:08:43.961Z,41.10
2017-06-01T18:11:12.412Z,41.30
2017-06-01T18:13:40.896Z,41.40
2017-06-01T18:16:09.395Z,42.00
2017-06-01T18:18:37.829Z,42.10
2017-06-01T18:21:06.325Z,42.30
2017-06-01T18:23:34.719Z,42.30
2017-06-01T18:26:03.076Z,43.50
2017-06-01T18:28:31.483Z,41.90
2017-06-01T18:30:59.872Z,42.80
2017-06-01T18:33:28.281Z,43.00
2017-06-01T18:35:56.648Z,42.90
2017-06-01T18:38:25.023Z,45.10
2017-06-01T18:40:53.403Z,44.80
2017-06-01T18:43:21.840Z,44.90
2017-06-01T18:45:50.212Z,45.60
2017-06-01T18:48:18.617Z,45.80
2017-06-01T18:50:46.978Z,45.00
2017-06-01T18:53:15.360Z,45.30
2017-06-01T18:55:44.368Z,46.20
2017-06-01T18:58:12.741Z,46.70
2017-06-01T19:00:41.119Z,47.10
2017-06-01T19:03:09.559Z,46.20
2017-06-01T19:05:37.922Z,47.90
2017-06-01T19:08:06.419Z,48.10
2017-06-01T19:10:34.770Z,47.80
2017-06-01T19:13:03.185Z,47.90
2017-06-01T19:15:31.784Z,48.60
2017-06-01T19:18:00.179Z,48.30
2017-06-01T19:20:28.539Z,49.60
2017-06-01T19:22:56.948Z,49.00
2017-06-01T19:25:25.360Z,49.10
2017-06-01T19:27:53.829Z,49.70
2017-06-01T19:30:22.174Z,50.60
2017-06-01T19:32:50.587Z,50.60
2017-06-01T19:35:18.938Z,51.20
2017-06-01T19:37:47.316Z,51.30
2017-06-01T19:40:15.695Z,52.60
2017-06-01T19:42:44.104Z,53.50
2017-06-01T19:45:12.469Z,53.20
2017-06-01T19:47:40.871Z,54.40
2017-06-01T19:50:08.512Z,54.40
2017-06-01T19:52:38.332Z,55.40
2017-06-01T19:55:06.731Z,56.00
2017-06-01T19:57:35.127Z,56.40
2017-06-01T20:00:03.483Z,56.70
2017-06-01T20:02:31.944Z,56.90
2017-06-01T20:05:00.405Z,57.30
2017-06-01T20:07:30.042Z,57.30
2017-06-01T20:10:00.714Z,58.10
2017-06-01T20:12:29.192Z,58.60
2017-06-01T20:14:57.644Z,59.20
2017-06-01T20:17:26.160Z,58.90
2017-06-01T20:19:54.633Z,59.30
2017-06-01T20:22:23.104Z,59.10
2017-06-01T20:24:51.590Z,59.20
2017-06-01T20:27:20.082Z,59.30
2017-06-01T20:29:47.811Z,59.30
2017-06-01T20:32:16.330Z,61.10
2017-06-01T20:34:44.091Z,61.10
2017-06-01T20:37:12.592Z,61.90
2017-06-01T20:39:41.099Z,61.90
2017-06-01T20:42:09.619Z,62.20
2017-06-01T20:44:38.106Z,62.00
2017-06-01T20:47:06.583Z,62.60
2017-06-01T20:49:35.081Z,62.50
2017-06-01T20:52:03.614Z,62.60
2017-06-01T20:54:32.092Z,63.70
2017-06-01T20:57:00.582Z,64.30
2017-06-01T20:59:29.073Z,63.70
2017-06-01T21:01:57.495Z,64.00
2017-06-01T21:04:25.948Z,64.00
2017-06-01T21:06:54.423Z,63.40
2017-06-01T21:09:22.936Z,64.40
2017-06-01T21:11:51.408Z,64.10
2017-06-01T21:14:19.868Z,64.00
2017-06-01T21:16:48.317Z,64.30
2017-06-01T21:19:16.782Z,64.70
2017-06-01T21:21:45.290Z,65.50
2017-06-01T21:24:13.813Z,65.00
2017-06-01T21:26:42.329Z,65.30
2017-06-01T21:29:10.822Z,65.20
2017-06-01T21:31:39.301Z,65.60
2017-06-01T21:34:07.780Z,65.50
2017-06-01T21:36:36.258Z,64.90
2017-06-01T21:39:04.769Z,65.00
2017-06-01T21:41:33.236Z,64.90
2017-06-01T21:44:01.675Z,65.00
2017-06-01T21:46:30.210Z,65.30
2017-06-01T21:48:58.706Z,65.10
2017-06-01T21:51:27.211Z,65.20
2017-06-01T21:53:55.710Z,64.60
2017-06-01T21:56:24.262Z,64.20
2017-06-01T21:58:52.750Z,64.20
2017-06-01T22:01:21.305Z,64.20
2017-06-01T22:03:49.841Z,64.90
2017-06-01T22:06:19.408Z,65.10
2017-06-01T22:08:47.168Z,65.10
2017-06-01T22:11:18.833Z,66.10
2017-06-01T22:26:47.361Z,69.80
2017-06-01T22:29:15.877Z,70.00
2017-06-01T22:31:44.359Z,70.00
2017-06-01T22:34:12.828Z,69.60
2017-06-01T22:36:41.353Z,70.40
2017-06-01T22:39:09.867Z,69.90
2017-06-01T22:41:39.189Z,70.60
2017-06-01T22:44:07.708Z,70.00
2017-06-01T22:46:36.247Z,69.90
2017-06-01T22:49:04.722Z,69.70
2017-06-01T22:51:33.181Z,69.30
2017-06-01T22:54:01.708Z,69.00
2017-06-01T22:56:30.211Z,70.10
2017-06-01T22:58:58.716Z,69.70
2017-06-01T23:01:27.244Z,69.40
2017-06-01T23:03:55.776Z,70.20
2017-06-01T23:06:24.259Z,70.20
2017-06-01T23:08:52.803Z,69.90
2017-06-01T23:11:21.444Z,69.90
2017-06-01T23:13:50.003Z,70.20
2017-06-01T23:16:18.477Z,70.20
2017-06-01T23:18:47.055Z,70.70
2017-06-01T23:21:15.556Z,71.20
2017-06-01T23:23:44.046Z,71.00
2017-06-01T23:26:12.551Z,70.70
2017-06-01T23:28:41.066Z,70.50
2017-06-01T23:31:08.806Z,70.50
2017-06-01T23:33:37.287Z,70.50
2017-06-01T23:36:05.775Z,70.40
2017-06-01T23:38:34.239Z,70.00
2017-06-01T23:41:02.731Z,70.30
2017-06-01T23:43:31.184Z,70.20
2017-06-01T23:45:59.652Z,70.90
2017-06-01T23:48:28.112Z,71.10
2017-06-01T23:50:56.561Z,70.70
2017-06-01T23:53:25.082Z,70.80
2017-06-01T23:55:53.603Z,70.30
2017-06-01T23:58:22.111Z,70.70
